Airfield :
LOGIN :

Register | Disclaimer

   EN    FR    IT 

 










Legend :    VFR   Marginal VFR   IFR   Intensive IFR   Very Intensive IFR
Visi :
Ceiling :
>= 8 km
>= 3000ft
5 to 8 km
1000 to 3000 ft
1500m to 5 km
500 to 1000 ft
800 to 1500m
200 to 500 ft
< 800m
< 200 ft
Symbols :   Thunderstorms  Fog  Heavy snow  Heavy precipitations  Wind > 20 kt
SIGMETs :     Misc.  Thunderstorms  Icing  Turbulence  Mountain Waves  Volcanic Ashes







- Airport Elevation : 53 ft
- IATA code : HAM


EDDH - Hamburg

CURRENT METAR :
  • 262320Z VRB01KT 9999 MIFG NSC 00/M00 Q1013 NOSIG

EXPIRED METARs :
  • 262250Z 22001KT CAVOK 01/00 Q1013 NOSIG
  • 262220Z 00000KT CAVOK 01/00 Q1013 NOSIG
  • 262150Z VRB02KT CAVOK 01/01 Q1013 NOSIG
  • 262120Z VRB01KT CAVOK 01/01 Q1013 NOSIG
  • 262050Z 31001KT CAVOK 02/01 Q1013 NOSIG
  • 262020Z 00000KT 9999 FEW045 03/01 Q1013 NOSIG

TAF TAF EDDH
Valid from the 26 at 18:00 until the 28 at 00:00 UTC


261700Z 2618/2724 31004KT 9999 FEW040
BECMG 2706/2708 27009KT
PROB30
TEMPO 2710/2717 SHRAGS BKN015CB
BECMG 2717/2720 21005KT
No reported NOTAMs for that airfield.



MET'MAP, your aeronautical weather chart ! - Copyright ORBIFLY December 2007 - Disclaimer

ORBIFLY MET'MAP TEAM :

Programming & Development : Alexandra Zaïnal
Concept & Development : Baudouin d'Aumeries
Co-Development & Prog : Marc-Olivier Méhu
Technical & hardware support : Manuel Goepfert

Contact : metmap@orbifly.com




SOURCES & CREDITS :

   NOAA